sensor_id;sensor_type;location;lat;lon;timestamp;pressure;altitude;pressure_sealevel;temperature;humidity
75424;BME280;64005;55.160;36.002;2024-02-23T00:00:40;99208.69;;;0.77;70.68
75424;BME280;64005;55.160;36.002;2024-02-23T00:03:09;99211.19;;;0.84;70.69
75424;BME280;64005;55.160;36.002;2024-02-23T00:05:38;99211.78;;;0.91;70.18
75424;BME280;64005;55.160;36.002;2024-02-23T00:08:06;99211.78;;;0.91;70.04
75424;BME280;64005;55.160;36.002;2024-02-23T00:10:34;99209.88;;;0.97;70.40
75424;BME280;64005;55.160;36.002;2024-02-23T00:13:01;99207.41;;;1.00;69.64
75424;BME280;64005;55.160;36.002;2024-02-23T00:15:29;99200.28;;;0.99;70.22
75424;BME280;64005;55.160;36.002;2024-02-23T00:17:56;99207.94;;;0.97;69.68
75424;BME280;64005;55.160;36.002;2024-02-23T00:20:25;99205.22;;;0.97;70.43
75424;BME280;64005;55.160;36.002;2024-02-23T00:22:52;99207.94;;;0.97;70.58
75424;BME280;64005;55.160;36.002;2024-02-23T00:25:19;99196.19;;;1.02;70.29
75424;BME280;64005;55.160;36.002;2024-02-23T00:27:46;99200.84;;;1.01;70.57
75424;BME280;64005;55.160;36.002;2024-02-23T00:30:14;99197.56;;;0.99;70.42
75424;BME280;64005;55.160;36.002;2024-02-23T00:32:42;99202.47;;;0.97;70.50
75424;BME280;64005;55.160;36.002;2024-02-23T00:35:09;99199.75;;;1.02;70.51
75424;BME280;64005;55.160;36.002;2024-02-23T00:37:38;99196.47;;;1.05;70.55
75424;BME280;64005;55.160;36.002;2024-02-23T00:40:06;99195.09;;;1.08;70.27
75424;BME280;64005;55.160;36.002;2024-02-23T00:42:35;99195.66;;;1.05;70.04
75424;BME280;64005;55.160;36.002;2024-02-23T00:45:03;99198.13;;;1.06;70.13
75424;BME280;64005;55.160;36.002;2024-02-23T00:47:30;99202.22;;;1.09;70.18
75424;BME280;64005;55.160;36.002;2024-02-23T00:49:58;99203.06;;;1.09;70.20
75424;BME280;64005;55.160;36.002;2024-02-23T00:52:25;99195.94;;;1.08;70.45
75424;BME280;64005;55.160;36.002;2024-02-23T00:54:54;99194.00;;;1.04;70.19
75424;BME280;64005;55.160;36.002;2024-02-23T00:57:21;99195.09;;;1.03;70.64
75424;BME280;64005;55.160;36.002;2024-02-23T00:59:53;99211.25;;;1.04;70.19
75424;BME280;64005;55.160;36.002;2024-02-23T01:02:20;99198.09;;;0.96;70.71
75424;BME280;64005;55.160;36.002;2024-02-23T01:04:48;99202.22;;;0.99;70.28
75424;BME280;64005;55.160;36.002;2024-02-23T01:07:15;99207.69;;;0.99;70.70
75424;BME280;64005;55.160;36.002;2024-02-23T01:09:42;99201.66;;;1.02;70.66
75424;BME280;64005;55.160;36.002;2024-02-23T01:12:11;99199.19;;;1.00;70.85
75424;BME280;64005;55.160;36.002;2024-02-23T01:14:39;99207.13;;;0.97;70.89
75424;BME280;64005;55.160;36.002;2024-02-23T01:17:06;99210.38;;;0.94;70.55
75424;BME280;64005;55.160;36.002;2024-02-23T01:19:33;99203.31;;;0.98;70.98
75424;BME280;64005;55.160;36.002;2024-02-23T01:22:01;99207.41;;;1.00;70.74
75424;BME280;64005;55.160;36.002;2024-02-23T01:24:28;99206.03;;;0.98;70.59
75424;BME280;64005;55.160;36.002;2024-02-23T01:26:56;99207.97;;;1.02;70.79
75424;BME280;64005;55.160;36.002;2024-02-23T01:29:26;99208.78;;;0.98;70.65
75424;BME280;64005;55.160;36.002;2024-02-23T01:31:53;99216.44;;;0.96;71.09
75424;BME280;64005;55.160;36.002;2024-02-23T01:34:21;99206.03;;;0.93;70.73
75424;BME280;64005;55.160;36.002;2024-02-23T01:36:48;99206.03;;;0.93;71.11
75424;BME280;64005;55.160;36.002;2024-02-23T01:39:15;99208.78;;;0.98;70.68
75424;BME280;64005;55.160;36.002;2024-02-23T01:41:43;99207.38;;;0.95;71.13
75424;BME280;64005;55.160;36.002;2024-02-23T01:44:10;99216.16;;;0.92;70.71
75424;BME280;64005;55.160;36.002;2024-02-23T01:46:39;99203.53;;;0.86;71.40
75424;BME280;64005;55.160;36.002;2024-02-23T01:49:07;99204.34;;;0.87;70.74
75424;BME280;64005;55.160;36.002;2024-02-23T01:51:35;99208.19;;;0.86;71.03
75424;BME280;64005;55.160;36.002;2024-02-23T01:54:02;99210.13;;;0.90;71.28
75424;BME280;64005;55.160;36.002;2024-02-23T01:56:30;99203.03;;;0.99;70.98
75424;BME280;64005;55.160;36.002;2024-02-23T01:58:58;99209.59;;;1.03;70.56
75424;BME280;64005;55.160;36.002;2024-02-23T02:01:26;99213.75;;;1.06;70.40
75424;BME280;64005;55.160;36.002;2024-02-23T02:03:55;99217.00;;;1.08;70.60
75424;BME280;64005;55.160;36.002;2024-02-23T02:06:23;99213.19;;;1.14;70.37
75424;BME280;64005;55.160;36.002;2024-02-23T02:08:51;99209.09;;;1.11;70.20
75424;BME280;64005;55.160;36.002;2024-02-23T02:11:18;99209.34;;;1.05;71.06
75424;BME280;64005;55.160;36.002;2024-02-23T02:13:46;99211.25;;;1.04;70.89
75424;BME280;64005;55.160;36.002;2024-02-23T02:16:13;99216.19;;;1.02;71.11
75424;BME280;64005;55.160;36.002;2024-02-23T02:18:41;99226.03;;;0.98;70.95
75424;BME280;64005;55.160;36.002;2024-02-23T02:21:11;99227.41;;;1.01;71.12
75424;BME280;64005;55.160;36.002;2024-02-23T02:23:39;99226.31;;;1.07;70.96
75424;BME280;64005;55.160;36.002;2024-02-23T02:26:07;99227.69;;;1.04;71.27
75424;BME280;64005;55.160;36.002;2024-02-23T02:28:35;99219.75;;;1.03;71.12
75424;BME280;64005;55.160;36.002;2024-02-23T02:31:02;99204.66;;;0.95;71.00
75424;BME280;64005;55.160;36.002;2024-02-23T02:33:30;99209.84;;;0.92;71.21
75424;BME280;64005;55.160;36.002;2024-02-23T02:35:57;99206.28;;;0.91;71.53
75424;BME280;64005;55.160;36.002;2024-02-23T02:38:26;99210.69;;;0.92;71.03
75424;BME280;64005;55.160;36.002;2024-02-23T02:40:53;99211.50;;;0.93;71.28
75424;BME280;64005;55.160;36.002;2024-02-23T02:43:20;99202.47;;;0.92;71.61
75424;BME280;64005;55.160;36.002;2024-02-23T02:45:48;99215.59;;;0.90;71.36
75424;BME280;64005;55.160;36.002;2024-02-23T02:48:15;99220.50;;;0.93;70.94
75424;BME280;64005;55.160;36.002;2024-02-23T02:50:42;99217.50;;;0.95;70.87
75424;BME280;64005;55.160;36.002;2024-02-23T02:53:10;99210.97;;;1.01;71.06
75424;BME280;64005;55.160;36.002;2024-02-23T02:55:41;99194.53;;;0.96;70.98
75424;BME280;64005;55.160;36.002;2024-02-23T02:58:09;99226.88;;;1.09;71.13
75424;BME280;64005;55.160;36.002;2024-02-23T03:00:36;99220.84;;;1.07;70.79
75424;BME280;64005;55.160;36.002;2024-02-23T03:03:04;99220.06;;;1.11;71.25
75424;BME280;64005;55.160;36.002;2024-02-23T03:05:32;99224.44;;;1.12;70.57
75424;BME280;64005;55.160;36.002;2024-02-23T03:07:59;99219.75;;;1.08;71.13
75424;BME280;64005;55.160;36.002;2024-02-23T03:10:26;99226.31;;;1.07;71.45
75424;BME280;64005;55.160;36.002;2024-02-23T03:12:55;99222.22;;;1.04;71.09
75424;BME280;64005;55.160;36.002;2024-02-23T03:15:22;99227.69;;;0.99;71.47
75424;BME280;64005;55.160;36.002;2024-02-23T03:17:50;99226.56;;;1.00;71.11
75424;BME280;64005;55.160;36.002;2024-02-23T03:20:17;99219.72;;;0.93;71.30
75424;BME280;64005;55.160;36.002;2024-02-23T03:22:44;99229.31;;;1.00;71.64
75424;BME280;64005;55.160;36.002;2024-02-23T03:25:12;99234.53;;;1.02;71.82
75424;BME280;64005;55.160;36.002;2024-02-23T03:27:39;99232.09;;;1.05;71.55
75424;BME280;64005;55.160;36.002;2024-02-23T03:30:09;99229.88;;;1.07;70.95
75424;BME280;64005;55.160;36.002;2024-02-23T03:32:36;99227.44;;;1.06;71.37
75424;BME280;64005;55.160;36.002;2024-02-23T03:35:06;99223.88;;;1.05;71.37
75424;BME280;64005;55.160;36.002;2024-02-23T03:37:34;99238.66;;;1.04;71.72
75424;BME280;64005;55.160;36.002;2024-02-23T03:40:01;99238.66;;;1.04;71.34
75424;BME280;64005;55.160;36.002;2024-02-23T03:42:30;99226.88;;;1.04;71.35
75424;BME280;64005;55.160;36.002;2024-02-23T03:44:58;99224.69;;;1.06;71.33
75424;BME280;64005;55.160;36.002;2024-02-23T03:47:26;99228.25;;;1.06;71.60
75424;BME280;64005;55.160;36.002;2024-02-23T03:49:54;99233.50;;;1.13;71.28
75424;BME280;64005;55.160;36.002;2024-02-23T03:52:21;99232.09;;;1.10;71.55
75424;BME280;64005;55.160;36.002;2024-02-23T03:54:48;99232.34;;;1.09;71.45
75424;BME280;64005;55.160;36.002;2024-02-23T03:57:17;99231.28;;;1.10;71.60
75424;BME280;64005;55.160;36.002;2024-02-23T03:59:51;99228.81;;;1.13;71.45
75424;BME280;64005;55.160;36.002;2024-02-23T04:02:19;99229.38;;;1.15;71.10
75424;BME280;64005;55.160;36.002;2024-02-23T04:04:48;99228.84;;;1.18;71.14
75424;BME280;64005;55.160;36.002;2024-02-23T04:07:16;99236.25;;;1.23;71.12
75424;BME280;64005;55.160;36.002;2024-02-23T04:09:43;99227.78;;;1.30;70.96
75424;BME280;64005;55.160;36.002;2024-02-23T04:12:11;99237.34;;;1.27;71.14
75424;BME280;64005;55.160;36.002;2024-02-23T04:14:38;99242.28;;;1.25;71.25
75424;BME280;64005;55.160;36.002;2024-02-23T04:17:06;99241.16;;;1.21;71.42
75424;BME280;64005;55.160;36.002;2024-02-23T04:19:33;99237.34;;;1.22;71.03
75424;BME280;64005;55.160;36.002;2024-02-23T04:22:02;99245.28;;;1.24;71.59
75424;BME280;64005;55.160;36.002;2024-02-23T04:24:30;99242.28;;;1.25;71.09
75424;BME280;64005;55.160;36.002;2024-02-23T04:26:57;99245.81;;;1.20;71.43
75424;BME280;64005;55.160;36.002;2024-02-23T04:29:24;99241.16;;;1.16;71.48
75424;BME280;64005;55.160;36.002;2024-02-23T04:31:51;99248.81;;;1.14;71.86
75424;BME280;64005;55.160;36.002;2024-02-23T04:34:19;99248.28;;;1.12;71.69
75424;BME280;64005;55.160;36.002;2024-02-23T04:36:46;99247.69;;;1.05;71.95
75424;BME280;64005;55.160;36.002;2024-02-23T04:39:15;99257.25;;;1.02;71.41
75424;BME280;64005;55.160;36.002;2024-02-23T04:41:42;99263.06;;;1.06;72.01
75424;BME280;64005;55.160;36.002;2024-02-23T04:44:09;99261.94;;;1.07;71.37
75424;BME280;64005;55.160;36.002;2024-02-23T04:46:37;99266.63;;;1.06;71.30
75424;BME280;64005;55.160;36.002;2024-02-23T04:49:04;99254.00;;;1.05;71.73
75424;BME280;64005;55.160;36.002;2024-02-23T04:51:31;99253.19;;;1.05;71.71
75424;BME280;64005;55.160;36.002;2024-02-23T04:53:59;99256.44;;;1.07;71.85
75424;BME280;64005;55.160;36.002;2024-02-23T04:56:27;99255.09;;;1.04;71.55
75424;BME280;64005;55.160;36.002;2024-02-23T04:58:55;99257.53;;;1.01;71.60
75424;BME280;64005;55.160;36.002;2024-02-23T05:01:23;99267.94;;;0.99;72.04
75424;BME280;64005;55.160;36.002;2024-02-23T05:03:50;99253.69;;;1.02;72.13
75424;BME280;64005;55.160;36.002;2024-02-23T05:06:18;99255.34;;;1.03;72.15
75424;BME280;64005;55.160;36.002;2024-02-23T05:08:45;99257.81;;;0.99;71.84
75424;BME280;64005;55.160;36.002;2024-02-23T05:11:14;99257.25;;;1.02;72.04
75424;BME280;64005;55.160;36.002;2024-02-23T05:13:43;99261.91;;;1.02;72.46
75424;BME280;64005;55.160;36.002;2024-02-23T05:16:10;99261.34;;;1.00;72.04
75424;BME280;64005;55.160;36.002;2024-02-23T05:18:38;99262.72;;;0.97;71.90
75424;BME280;64005;55.160;36.002;2024-02-23T05:21:06;99268.47;;;0.96;72.33
75424;BME280;64005;55.160;36.002;2024-02-23T05:23:33;99273.13;;;0.95;72.47
75424;BME280;64005;55.160;36.002;2024-02-23T05:26:01;99271.47;;;0.94;72.55
75424;BME280;64005;55.160;36.002;2024-02-23T05:28:28;99270.69;;;0.99;71.89
75424;BME280;64005;55.160;36.002;2024-02-23T05:30:57;99276.69;;;1.01;72.41
75424;BME280;64005;55.160;36.002;2024-02-23T05:33:25;99275.03;;;1.00;72.15
75424;BME280;64005;55.160;36.002;2024-02-23T05:35:52;99275.63;;;1.02;72.10
75424;BME280;64005;55.160;36.002;2024-02-23T05:38:19;99265.75;;;1.01;72.02
75424;BME280;64005;55.160;36.002;2024-02-23T05:40:47;99274.25;;;1.04;72.53
75424;BME280;64005;55.160;36.002;2024-02-23T05:43:15;99274.03;;;1.11;72.42
75424;BME280;64005;55.160;36.002;2024-02-23T05:45:43;99266.38;;;1.13;72.66
75424;BME280;64005;55.160;36.002;2024-02-23T05:48:12;99269.09;;;1.13;72.52
75424;BME280;64005;55.160;36.002;2024-02-23T05:50:40;99275.66;;;1.12;72.24
75424;BME280;64005;55.160;36.002;2024-02-23T05:53:07;99277.59;;;1.22;71.76
75424;BME280;64005;55.160;36.002;2024-02-23T05:55:35;99273.25;;;1.26;72.21
75424;BME280;64005;55.160;36.002;2024-02-23T05:58:02;99276.25;;;1.24;71.84
75424;BME280;64005;55.160;36.002;2024-02-23T06:00:31;99274.09;;;1.26;72.20
75424;BME280;64005;55.160;36.002;2024-02-23T06:02:58;99271.88;;;1.33;71.94
75424;BME280;64005;55.160;36.002;2024-02-23T06:05:27;99278.19;;;1.29;72.04
75424;BME280;64005;55.160;36.002;2024-02-23T06:07:54;99279.84;;;1.30;72.19
75424;BME280;64005;55.160;36.002;2024-02-23T06:10:22;99276.00;;;1.31;72.37
75424;BME280;64005;55.160;36.002;2024-02-23T06:12:50;99280.41;;;1.37;72.32
75424;BME280;64005;55.160;36.002;2024-02-23T06:15:17;99271.09;;;1.38;72.47
75424;BME280;64005;55.160;36.002;2024-02-23T06:17:45;99268.63;;;1.41;72.17
75424;BME280;64005;55.160;36.002;2024-02-23T06:20:12;99274.38;;;1.40;72.11
75424;BME280;64005;55.160;36.002;2024-02-23T06:22:41;99272.19;;;1.47;72.19
75424;BME280;64005;55.160;36.002;2024-02-23T06:25:09;99287.56;;;1.48;71.82
75424;BME280;64005;55.160;36.002;2024-02-23T06:27:37;99292.78;;;1.49;72.43
75424;BME280;64005;55.160;36.002;2024-02-23T06:30:05;99304.00;;;1.48;72.16
75424;BME280;64005;55.160;36.002;2024-02-23T06:32:33;99302.66;;;1.50;72.10
75424;BME280;64005;55.160;36.002;2024-02-23T06:35:01;99311.72;;;1.51;72.53
75424;BME280;64005;55.160;36.002;2024-02-23T06:37:30;99312.78;;;1.50;72.12
75424;BME280;64005;55.160;36.002;2024-02-23T06:39:58;99312.78;;;1.50;72.55
75424;BME280;64005;55.160;36.002;2024-02-23T06:42:26;99314.44;;;1.51;72.21
75424;BME280;64005;55.160;36.002;2024-02-23T06:44:53;99311.16;;;1.54;72.24
75424;BME280;64005;55.160;36.002;2024-02-23T06:47:21;99314.19;;;1.57;72.42
75424;BME280;64005;55.160;36.002;2024-02-23T06:49:48;99308.72;;;1.57;72.70
75424;BME280;64005;55.160;36.002;2024-02-23T06:52:16;99310.38;;;1.64;72.40
75424;BME280;64005;55.160;36.002;2024-02-23T06:54:44;99309.81;;;1.67;72.46
75424;BME280;64005;55.160;36.002;2024-02-23T06:57:12;99310.09;;;1.65;72.39
75424;BME280;64005;55.160;36.002;2024-02-23T06:59:40;99305.16;;;1.62;72.64
75424;BME280;64005;55.160;36.002;2024-02-23T07:02:07;99299.41;;;1.64;73.01
75424;BME280;64005;55.160;36.002;2024-02-23T07:04:35;99302.41;;;1.67;72.84
75424;BME280;64005;55.160;36.002;2024-02-23T07:07:03;99299.13;;;1.70;72.57
75424;BME280;64005;55.160;36.002;2024-02-23T07:09:33;99292.00;;;1.69;72.93
75424;BME280;64005;55.160;36.002;2024-02-23T07:12:00;99306.53;;;1.75;73.02
75424;BME280;64005;55.160;36.002;2024-02-23T07:14:29;99307.94;;;1.82;72.77
75424;BME280;64005;55.160;36.002;2024-02-23T07:16:56;99305.47;;;1.86;72.52
75424;BME280;64005;55.160;36.002;2024-02-23T07:19:24;99307.66;;;1.89;72.78
75424;BME280;64005;55.160;36.002;2024-02-23T07:21:51;99321.41;;;1.99;72.70
75424;BME280;64005;55.160;36.002;2024-02-23T07:24:18;99318.94;;;2.03;72.71
75424;BME280;64005;55.160;36.002;2024-02-23T07:26:46;99310.19;;;2.06;72.85
75424;BME280;64005;55.160;36.002;2024-02-23T07:29:13;99314.56;;;2.12;73.01
75424;BME280;64005;55.160;36.002;2024-02-23T07:31:42;99319.50;;;2.15;72.87
75424;BME280;64005;55.160;36.002;2024-02-23T07:34:09;99315.13;;;2.19;72.88
75424;BME280;64005;55.160;36.002;2024-02-23T07:36:37;99312.38;;;2.24;73.08
75424;BME280;64005;55.160;36.002;2024-02-23T07:39:05;99313.19;;;2.29;72.89
75424;BME280;64005;55.160;36.002;2024-02-23T07:41:32;99315.09;;;2.29;72.90
75424;BME280;64005;55.160;36.002;2024-02-23T07:44:00;99309.63;;;2.29;72.88
75424;BME280;64005;55.160;36.002;2024-02-23T07:46:27;99304.41;;;2.32;72.64
75424;BME280;64005;55.160;36.002;2024-02-23T07:48:56;99304.94;;;2.34;72.74
75424;BME280;64005;55.160;36.002;2024-02-23T07:51:23;99307.69;;;2.34;72.88
75424;BME280;64005;55.160;36.002;2024-02-23T07:53:50;99305.78;;;2.35;73.13
75424;BME280;64005;55.160;36.002;2024-02-23T07:56:18;99309.63;;;2.44;73.17
75424;BME280;64005;55.160;36.002;2024-02-23T07:58:45;99303.28;;;2.54;73.15
75424;BME280;64005;55.160;36.002;2024-02-23T08:01:14;99307.41;;;2.56;73.44
75424;BME280;64005;55.160;36.002;2024-02-23T08:03:41;99298.91;;;2.58;73.18
75424;BME280;64005;55.160;36.002;2024-02-23T08:06:10;99303.56;;;2.62;73.96
75424;BME280;64005;55.160;36.002;2024-02-23T08:08:38;99313.19;;;2.65;73.20
75424;BME280;64005;55.160;36.002;2024-02-23T08:11:06;99311.50;;;2.69;73.43
75424;BME280;64005;55.160;36.002;2024-02-23T08:13:33;99319.22;;;2.72;73.35
75424;BME280;64005;55.160;36.002;2024-02-23T08:16:01;99310.66;;;2.73;73.49
75424;BME280;64005;55.160;36.002;2024-02-23T08:18:29;99311.19;;;2.80;73.66
75424;BME280;64005;55.160;36.002;2024-02-23T08:20:57;99314.22;;;2.84;73.77
75424;BME280;64005;55.160;36.002;2024-02-23T08:23:25;99316.66;;;2.96;73.99
75424;BME280;64005;55.160;36.002;2024-02-23T08:25:53;99325.16;;;2.99;73.81
75424;BME280;64005;55.160;36.002;2024-02-23T08:28:22;99318.31;;;3.02;73.73
75424;BME280;64005;55.160;36.002;2024-02-23T08:30:49;99320.50;;;3.05;73.83
75424;BME280;64005;55.160;36.002;2024-02-23T08:33:16;99317.19;;;3.08;73.82
75424;BME280;64005;55.160;36.002;2024-02-23T08:35:44;99321.56;;;3.14;73.90
75424;BME280;64005;55.160;36.002;2024-02-23T08:38:11;99325.38;;;3.23;73.93
75424;BME280;64005;55.160;36.002;2024-02-23T08:40:40;99324.22;;;3.34;74.04
75424;BME280;64005;55.160;36.002;2024-02-23T08:43:07;99328.91;;;3.39;73.86
75424;BME280;64005;55.160;36.002;2024-02-23T08:45:35;99328.59;;;3.45;73.89
75424;BME280;64005;55.160;36.002;2024-02-23T08:48:02;99327.19;;;3.48;73.75
75424;BME280;64005;55.160;36.002;2024-02-23T08:50:30;99330.78;;;3.48;74.24
75424;BME280;64005;55.160;36.002;2024-02-23T08:52:57;99330.47;;;3.55;73.99
75424;BME280;64005;55.160;36.002;2024-02-23T08:55:24;99311.78;;;3.57;73.98
75424;BME280;64005;55.160;36.002;2024-02-23T08:57:53;99325.25;;;3.58;74.31
75424;BME280;64005;55.160;36.002;2024-02-23T09:00:21;99326.63;;;3.56;73.55
75424;BME280;64005;55.160;36.002;2024-02-23T09:02:48;99325.50;;;3.62;74.10
75424;BME280;64005;55.160;36.002;2024-02-23T09:05:15;99334.53;;;3.68;73.93
75424;BME280;64005;55.160;36.002;2024-02-23T09:07:43;99329.84;;;3.68;73.95
75424;BME280;64005;55.160;36.002;2024-02-23T09:10:11;99337.84;;;3.70;73.86
75424;BME280;64005;55.160;36.002;2024-02-23T09:12:38;99333.41;;;3.79;74.08
75424;BME280;64005;55.160;36.002;2024-02-23T09:15:08;99346.84;;;3.85;74.31
75424;BME280;64005;55.160;36.002;2024-02-23T09:17:35;99343.25;;;3.85;74.01
75424;BME280;64005;55.160;36.002;2024-02-23T09:20:03;99340.78;;;3.83;73.97
75424;BME280;64005;55.160;36.002;2024-02-23T09:22:30;99337.75;;;3.85;74.05
75424;BME280;64005;55.160;36.002;2024-02-23T09:24:58;99341.28;;;3.90;73.41
75424;BME280;64005;55.160;36.002;2024-02-23T09:27:25;99351.75;;;3.88;73.54
75424;BME280;64005;55.160;36.002;2024-02-23T09:29:52;99348.47;;;3.86;73.94
75424;BME280;64005;55.160;36.002;2024-02-23T09:32:21;99344.34;;;3.89;73.68
75424;BME280;64005;55.160;36.002;2024-02-23T09:35:00;99348.13;;;3.98;74.31
75424;BME280;64005;55.160;36.002;2024-02-23T09:37:29;99351.41;;;4.05;74.27
75424;BME280;64005;55.160;36.002;2024-02-23T09:40:22;99350.78;;;4.13;73.54
75424;BME280;64005;55.160;36.002;2024-02-23T09:42:55;99343.88;;;4.16;73.83
75424;BME280;64005;55.160;36.002;2024-02-23T09:45:24;99349.84;;;4.28;74.03
75424;BME280;64005;55.160;36.002;2024-02-23T09:47:53;99343.78;;;4.31;73.91
75424;BME280;64005;55.160;36.002;2024-02-23T09:50:22;99345.91;;;4.39;73.63
75424;BME280;64005;55.160;36.002;2024-02-23T09:52:50;99346.16;;;4.43;73.76
75424;BME280;64005;55.160;36.002;2024-02-23T09:55:18;99356.06;;;4.44;74.09
75424;BME280;64005;55.160;36.002;2024-02-23T09:57:49;99348.59;;;4.49;73.54
75424;BME280;64005;55.160;36.002;2024-02-23T10:00:20;99349.66;;;4.53;73.64
75424;BME280;64005;55.160;36.002;2024-02-23T10:05:33;99353.78;;;4.56;73.17
75424;BME280;64005;55.160;36.002;2024-02-23T10:08:00;99353.50;;;4.57;73.39
75424;BME280;64005;55.160;36.002;2024-02-23T10:10:29;99345.00;;;4.49;73.96
75424;BME280;64005;55.160;36.002;2024-02-23T10:16:19;99351.78;;;4.61;73.95
75424;BME280;64005;55.160;36.002;2024-02-23T10:18:47;99351.22;;;4.64;73.99
75424;BME280;64005;55.160;36.002;2024-02-23T10:21:16;99351.72;;;4.66;73.98
75424;BME280;64005;55.160;36.002;2024-02-23T10:23:44;99347.81;;;4.72;73.97
75424;BME280;64005;55.160;36.002;2024-02-23T10:26:12;99352.78;;;4.75;73.31
75424;BME280;64005;55.160;36.002;2024-02-23T10:28:45;99354.69;;;4.75;73.99
75424;BME280;64005;55.160;36.002;2024-02-23T10:31:13;99355.81;;;4.74;73.91
75424;BME280;64005;55.160;36.002;2024-02-23T10:33:41;99346.53;;;4.65;73.44
75424;BME280;64005;55.160;36.002;2024-02-23T10:36:12;99346.78;;;4.68;73.42
75424;BME280;64005;55.160;36.002;2024-02-23T10:38:45;99366.88;;;4.69;74.15
75424;BME280;64005;55.160;36.002;2024-02-23T10:41:16;99346.72;;;4.73;73.81
75424;BME280;64005;55.160;36.002;2024-02-23T10:43:46;99351.72;;;4.71;74.32
75424;BME280;64005;55.160;36.002;2024-02-23T10:46:14;99366.59;;;4.70;73.79
75424;BME280;64005;55.160;36.002;2024-02-23T10:48:51;99359.97;;;4.71;73.76
75424;BME280;64005;55.160;36.002;2024-02-23T10:51:21;99361.31;;;4.74;74.44
75424;BME280;64005;55.160;36.002;2024-02-23T10:53:52;99372.06;;;4.75;74.28
75424;BME280;64005;55.160;36.002;2024-02-23T10:56:20;99361.56;;;4.77;74.11
75424;BME280;64005;55.160;36.002;2024-02-23T10:58:48;99371.72;;;4.82;73.86
75424;BME280;64005;55.160;36.002;2024-02-23T11:01:16;99375.53;;;4.86;74.33
75424;BME280;64005;55.160;36.002;2024-02-23T11:03:46;99361.75;;;4.86;73.94
75424;BME280;64005;55.160;36.002;2024-02-23T11:09:51;99374.38;;;4.92;73.66
75424;BME280;64005;55.160;36.002;2024-02-23T11:12:25;99383.44;;;4.98;73.86
75424;BME280;64005;55.160;36.002;2024-02-23T11:14:56;99377.34;;;5.01;74.62
75424;BME280;64005;55.160;36.002;2024-02-23T11:17:49;99381.16;;;5.05;74.62
75424;BME280;64005;55.160;36.002;2024-02-23T11:20:17;99380.28;;;5.09;73.74
75424;BME280;64005;55.160;36.002;2024-02-23T11:22:45;99388.75;;;5.18;73.45
75424;BME280;64005;55.160;36.002;2024-02-23T11:25:20;99390.63;;;5.23;74.02
75424;BME280;64005;55.160;36.002;2024-02-23T11:28:01;99387.81;;;5.28;73.51
75424;BME280;64005;55.160;36.002;2024-02-23T11:30:31;99388.91;;;5.27;73.99
75424;BME280;64005;55.160;36.002;2024-02-23T11:36:07;99363.34;;;5.21;73.30
75424;BME280;64005;55.160;36.002;2024-02-23T11:38:34;99392.81;;;5.49;73.14
75424;BME280;64005;55.160;36.002;2024-02-23T11:41:03;99390.94;;;5.45;73.00
75424;BME280;64005;55.160;36.002;2024-02-23T11:43:34;99396.03;;;5.33;73.51
75424;BME280;64005;55.160;36.002;2024-02-23T11:46:02;99400.31;;;5.20;73.11
75424;BME280;64005;55.160;36.002;2024-02-23T11:48:40;99389.59;;;5.13;73.41
75424;BME280;64005;55.160;36.002;2024-02-23T11:51:08;99391.81;;;5.16;73.11
75424;BME280;64005;55.160;36.002;2024-02-23T11:53:36;99403.59;;;5.22;73.08
75424;BME280;64005;55.160;36.002;2024-02-23T11:56:06;99400.31;;;5.20;73.25
75424;BME280;64005;55.160;36.002;2024-02-23T11:58:34;99390.91;;;5.21;72.87
75424;BME280;64005;55.160;36.002;2024-02-23T12:01:02;99398.44;;;5.15;73.00
75424;BME280;64005;55.160;36.002;2024-02-23T12:03:30;99396.22;;;5.12;73.72
75424;BME280;64005;55.160;36.002;2024-02-23T12:05:58;99395.09;;;5.18;73.64
75424;BME280;64005;55.160;36.002;2024-02-23T12:08:26;99396.91;;;5.28;73.28
75424;BME280;64005;55.160;36.002;2024-02-23T12:10:54;99393.75;;;5.40;73.07
75424;BME280;64005;55.160;36.002;2024-02-23T12:13:42;99393.47;;;5.41;73.59
75424;BME280;64005;55.160;36.002;2024-02-23T12:16:10;99403.47;;;5.32;72.88
75424;BME280;64005;55.160;36.002;2024-02-23T12:18:38;99405.47;;;5.27;73.59
75424;BME280;64005;55.160;36.002;2024-02-23T12:21:06;99393.94;;;5.25;73.25
75424;BME280;64005;55.160;36.002;2024-02-23T12:23:41;99397.53;;;5.20;72.75
75424;BME280;64005;55.160;36.002;2024-02-23T12:26:09;99404.00;;;5.10;72.63
75424;BME280;64005;55.160;36.002;2024-02-23T12:28:37;99407.44;;;4.97;72.54
75424;BME280;64005;55.160;36.002;2024-02-23T12:31:16;99405.84;;;4.91;72.44
75424;BME280;64005;55.160;36.002;2024-02-23T12:33:50;99394.66;;;4.77;72.69
75424;BME280;64005;55.160;36.002;2024-02-23T12:36:18;99410.09;;;4.73;72.85
75424;BME280;64005;55.160;36.002;2024-02-23T12:38:46;99415.38;;;4.70;72.65
75424;BME280;64005;55.160;36.002;2024-02-23T12:41:13;99425.63;;;4.64;72.61
75424;BME280;64005;55.160;36.002;2024-02-23T12:43:41;99419.84;;;4.61;72.20
75424;BME280;64005;55.160;36.002;2024-02-23T12:46:19;99430.31;;;4.59;72.85
75424;BME280;64005;55.160;36.002;2024-02-23T12:52:34;99428.97;;;4.56;72.59
75424;BME280;64005;55.160;36.002;2024-02-23T12:55:01;99420.72;;;4.56;72.65
75424;BME280;64005;55.160;36.002;2024-02-23T12:57:30;99416.03;;;4.57;72.36
75424;BME280;64005;55.160;36.002;2024-02-23T12:59:57;99425.44;;;4.51;72.99
75424;BME280;64005;55.160;36.002;2024-02-23T13:02:26;99424.06;;;4.48;73.09
75424;BME280;64005;55.160;36.002;2024-02-23T13:04:54;99428.47;;;4.49;72.75
75424;BME280;64005;55.160;36.002;2024-02-23T13:07:21;99442.25;;;4.49;72.44
75424;BME280;64005;55.160;36.002;2024-02-23T13:09:49;99435.63;;;4.50;72.60
75424;BME280;64005;55.160;36.002;2024-02-23T13:12:16;99437.56;;;4.50;72.58
75424;BME280;64005;55.160;36.002;2024-02-23T13:14:46;99439.50;;;4.49;72.30
75424;BME280;64005;55.160;36.002;2024-02-23T13:17:14;99436.97;;;4.53;72.55
75424;BME280;64005;55.160;36.002;2024-02-23T13:19:45;99440.56;;;4.53;72.51
75424;BME280;64005;55.160;36.002;2024-02-23T13:22:31;99439.44;;;4.54;72.43